Strasburg, IL (62465)

12:17 PM CDT on July 06, 2015 (GMT -0500)
Wolf Creek State Park | | Change Station
CLOSE
Current Station
Personal Weather Station
Location: Findlay, IL
Elevation: 640 ft
Nearby Weather Stations

Elev 640 ft 39.50 °N, 88.68 °W | Updated 2 seconds ago

Partly Cloudy
Partly Cloudy
83.2 °F
Feels Like 92 °F
N
9.0
Wind Variable Wind from South
Gusts 15.0 mph

Today
High -- | Low -- °F
--% Chance of Precip.
Yesterday
High -- | Low -- °F
Precip. -- in
5:33 AM 8:24 PM
Waning Gibbous, 74% visible
Pressure 30.01 in
Visibility 10.0 miles
Clouds Few 2500 ft
Heat Index 92 °F
Dew Point 76 °F
Humidity 80%
Rainfall 0.00 in
Snow Depth Not available.
UV 3.2 out of 12
Pollen 4.20 out of 12
Air Quality Not available.
Flu Activity Not available.
METAR KMTO 061653Z AUTO 19012G16KT 10SM FEW025 28/22 A3003 RMK AO2 SLP162 T02780222 TSNO

More Conditions Fewer Conditions

Pressure 30.01 in
Visibility 10.0 miles
Clouds Few 2500 ft
Heat Index 92 °F
Dew Point 76 °F
Humidity 80%
Rainfall 0.00 in
Snow Depth Not available.
UV 3.2 out of 12
Pollen 4.20 out of 12
Air Quality Not available.
Flu Activity Not available.
METAR KMTO 061653Z AUTO 19012G16KT 10SM FEW025 28/22 A3003 RMK AO2 SLP162 T02780222 TSNO

More Conditions Fewer Conditions

10-Day Weather Forecast

×

Almanac

Astronomy

Jul. 06, 2015 Rise Set
Actual Time
Civil Twilight
Nautical Twilight
Astronomical Twilight
Moon
Length of Visible Light
Length of Day
Tomorrow will be .
, % of the Moon is Illuminated

Today's Extremes

State Highs State Lows

Community

WunderPhotos

Upload Photos

1,835,604 photos uploaded!

WunderBlogs® & News

Nearby

Air Quality

  Air Quality AQ Index Pollutant
Not available.

Snow Depth

Station Depth Elevation

Earthquake Activity

City Distance Mag. Time & Date
Minimum magnitude displayed is 2.5.

Coastal Water Temperatures

Place Temperature

Stations

Nearby Weather Stations

Station Location Temp. Windchill Dew Point Humidity Wind Precip. Elev Updated Type